logo
Search for airport 
image banner adimage banner adimage banner ad
image banner ad

FACC - Chitwa Chitwa

Located in Arathusa, South Africa

ICAO - FACC, IATA -

Data provided by Airmate  

General information

Coordinates: S24°44'12" E31°33'35"
Elevation is 1256 feet MSL.
 
View others Airports in Limpopo

Operational data

Special qualification required
Current time UTC:
Current local time:
Weather at : - ( 0 km )
METAR: MHTG 172128Z 17007KT 4000 2000SW RA FEW016 BKN028 BKN080 21/20 Q1013 A2991 NOSIG
View NOTAMs / SUP AIP / TFR affecting this airport [VIEW]
Communications frequencies: [VIEW]

Runways:

RWY identifierQFULength (ft)Width (ft)SurfaceLDA (ft)
0160°219849SAND
19240°219849SAND

Airport contact information

Address: Arathusa South Africa

Satellite view of FACC